createdAt,value
2018-10-03T00:04:58.337Z,99.60
2018-10-03T00:10:58.143Z,99.41
2018-10-03T00:11:59.563Z,98.75
2018-10-03T00:13:58.250Z,99.60
2018-10-03T00:16:58.402Z,99.51
2018-10-03T00:17:58.936Z,99.75
2018-10-03T00:18:58.128Z,99.60
2018-10-03T00:19:58.268Z,99.27
2018-10-03T00:20:58.294Z,98.99
2018-10-03T00:22:00.471Z,98.65
2018-10-03T00:22:58.137Z,99.32
2018-10-03T00:24:57.977Z,99.56
2018-10-03T00:26:58.257Z,98.80
2018-10-03T00:28:04.369Z,99.22
2018-10-03T00:28:58.129Z,99.22
2018-10-03T00:29:57.819Z,99.41
2018-10-03T00:30:57.793Z,98.94
2018-10-03T00:31:57.785Z,98.94
2018-10-03T00:32:57.779Z,98.75
2018-10-03T00:33:57.747Z,98.85
2018-10-03T00:34:58.062Z,99.22
2018-10-03T00:35:57.646Z,99.32
2018-10-03T00:36:57.797Z,98.94
2018-10-03T00:37:57.601Z,98.56
2018-10-03T00:38:57.590Z,98.94
2018-10-03T00:39:59.780Z,98.94
2018-10-03T00:40:57.900Z,99.60
2018-10-03T00:41:57.617Z,99.51
2018-10-03T00:43:57.614Z,98.65
2018-10-03T00:44:57.473Z,98.85
2018-10-03T00:45:57.502Z,99.13
2018-10-03T00:46:59.788Z,98.56
2018-10-03T00:47:57.465Z,99.13
2018-10-03T00:48:57.431Z,98.36
2018-10-03T00:49:57.681Z,98.75
2018-10-03T00:50:57.416Z,99.13
2018-10-03T00:51:57.342Z,98.46
2018-10-03T00:52:57.998Z,98.75
2018-10-03T00:53:58.043Z,99.13
2018-10-03T00:54:57.284Z,98.85
2018-10-03T00:55:57.568Z,98.94
2018-10-03T00:56:57.312Z,99.13
2018-10-03T00:57:57.229Z,98.75
2018-10-03T00:58:57.504Z,98.85
2018-10-03T00:59:57.185Z,98.46
2018-10-03T01:00:57.164Z,98.32
2018-10-03T01:01:57.144Z,98.13
2018-10-03T01:02:57.211Z,98.70
2018-10-03T01:03:57.156Z,98.60
2018-10-03T01:04:57.437Z,98.51
2018-10-03T01:05:57.069Z,98.32
2018-10-03T01:06:58.572Z,98.32
2018-10-03T01:07:57.418Z,98.32
2018-10-03T01:08:57.152Z,98.51
2018-10-03T01:09:57.130Z,98.70
2018-10-03T01:10:57.620Z,98.60
2018-10-03T01:11:57.432Z,98.89
2018-10-03T01:12:56.928Z,98.60
2018-10-03T01:13:57.140Z,98.32
2018-10-03T01:14:56.991Z,98.60
2018-10-03T01:15:56.877Z,98.27
2018-10-03T01:16:57.387Z,99.08
2018-10-03T01:17:56.836Z,98.41
2018-10-03T01:18:57.365Z,98.89
2018-10-03T01:19:56.861Z,98.65
2018-10-03T01:20:56.839Z,99.22
2018-10-03T01:21:56.809Z,99.32
2018-10-03T01:22:56.734Z,99.32
2018-10-03T01:23:56.712Z,98.94
2018-10-03T01:24:56.706Z,99.41
2018-10-03T01:25:57.282Z,98.85
2018-10-03T01:26:56.677Z,99.13
2018-10-03T01:27:56.641Z,98.65
2018-10-03T01:28:56.624Z,99.80
2018-10-03T01:29:56.607Z,99.04
2018-10-03T01:30:56.584Z,99.13
2018-10-03T01:31:56.611Z,98.46
2018-10-03T01:32:56.896Z,99.51
2018-10-03T01:33:56.524Z,99.13
2018-10-03T01:34:56.558Z,98.94
2018-10-03T01:35:56.545Z,99.04
2018-10-03T01:36:56.474Z,98.85
2018-10-03T01:37:56.455Z,99.04
2018-10-03T01:38:56.937Z,99.04
2018-10-03T01:39:56.889Z,98.75
2018-10-03T01:40:56.386Z,99.04
2018-10-03T01:41:56.671Z,99.13
2018-10-03T01:42:56.355Z,99.04
2018-10-03T01:43:56.472Z,99.13
2018-10-03T01:44:56.358Z,99.22
2018-10-03T01:45:56.379Z,99.13
2018-10-03T01:46:56.620Z,99.04
2018-10-03T01:47:56.556Z,99.13
2018-10-03T01:48:56.233Z,98.94
2018-10-03T01:49:56.260Z,99.13
2018-10-03T01:50:56.190Z,98.85
2018-10-03T01:51:56.172Z,99.32
2018-10-03T01:55:56.099Z,98.85
2018-10-03T01:56:56.083Z,99.04
2018-10-03T01:57:56.105Z,99.41
2018-10-03T01:58:56.094Z,99.60
2018-10-03T01:59:56.373Z,99.22
2018-10-03T02:00:56.001Z,99.41
2018-10-03T02:01:55.988Z,99.13
2018-10-03T02:02:56.018Z,99.32
2018-10-03T02:03:55.941Z,99.41
2018-10-03T02:04:55.980Z,99.41
2018-10-03T02:05:56.251Z,99.41
2018-10-03T02:06:55.889Z,99.51
2018-10-03T02:07:55.870Z,99.13
2018-10-03T02:08:55.903Z,99.41
2018-10-03T02:09:55.831Z,98.94
2018-10-03T02:10:55.812Z,98.65
2018-10-03T02:11:56.179Z,99.04
2018-10-03T02:12:55.824Z,99.41
2018-10-03T02:13:55.807Z,99.22
2018-10-03T02:14:55.741Z,99.41
2018-10-03T02:15:55.713Z,99.04
2018-10-03T02:16:56.963Z,99.51
2018-10-03T02:17:56.029Z,99.51
2018-10-03T02:18:55.668Z,99.51
2018-10-03T02:19:55.682Z,99.51
2018-10-03T02:20:55.686Z,99.41
2018-10-03T02:21:55.602Z,98.56
2018-10-03T02:22:55.696Z,98.75
2018-10-03T02:23:56.041Z,98.85
2018-10-03T02:24:55.587Z,99.04
2018-10-03T02:25:55.576Z,99.32
2018-10-03T02:26:55.944Z,98.36
2018-10-03T02:27:55.485Z,99.04
2018-10-03T02:28:55.598Z,99.13
2018-10-03T02:29:55.991Z,97.89
2018-10-03T02:30:55.493Z,98.56
2018-10-03T02:31:55.406Z,99.04
2018-10-03T02:32:55.399Z,98.18
2018-10-03T02:33:55.419Z,97.89
2018-10-03T02:35:55.439Z,97.89
2018-10-03T02:36:55.814Z,98.27
2018-10-03T02:37:55.338Z,97.89
2018-10-03T02:38:55.369Z,97.89
2018-10-03T02:39:55.252Z,97.89
2018-10-03T02:40:55.243Z,97.99
2018-10-03T02:41:55.288Z,97.89
2018-10-03T02:42:55.265Z,98.36
2018-10-03T02:43:56.600Z,97.99
2018-10-03T02:44:55.203Z,97.89
2018-10-03T02:45:55.251Z,97.17
2018-10-03T02:46:55.164Z,97.22
2018-10-03T02:47:55.159Z,96.70
2018-10-03T02:48:55.201Z,96.60
2018-10-03T02:49:55.061Z,96.80
2018-10-03T02:50:55.420Z,97.56
2018-10-03T02:51:55.076Z,96.70
2018-10-03T02:52:55.052Z,96.98
2018-10-03T02:53:55.123Z,96.70
2018-10-03T02:54:55.167Z,96.60
2018-10-03T02:55:55.114Z,96.60
2018-10-03T02:56:54.920Z,96.51
2018-10-03T02:57:55.257Z,97.27
2018-10-03T02:58:54.982Z,96.80
2018-10-03T02:59:54.918Z,96.89
2018-10-03T03:00:54.843Z,96.89
2018-10-03T03:02:55.107Z,96.80
2018-10-03T03:03:54.842Z,96.89
2018-10-03T03:04:55.595Z,96.80
2018-10-03T03:05:54.754Z,96.89
2018-10-03T03:06:54.729Z,96.80
2018-10-03T03:07:54.723Z,96.80
2018-10-03T03:08:54.803Z,96.60
2018-10-03T03:09:54.674Z,96.80
2018-10-03T03:10:54.651Z,96.51
2018-10-03T03:11:55.007Z,96.60
2018-10-03T03:12:54.685Z,96.80
2018-10-03T03:13:54.595Z,96.80
2018-10-03T03:15:54.651Z,96.12
2018-10-03T03:16:54.536Z,96.17
2018-10-03T03:17:54.515Z,96.98
2018-10-03T03:18:54.873Z,96.84
2018-10-03T03:19:54.560Z,96.32
2018-10-03T03:20:54.771Z,97.17
2018-10-03T03:21:54.519Z,96.70
2018-10-03T03:22:54.508Z,96.51
2018-10-03T03:23:54.477Z,96.70
2018-10-03T03:24:54.726Z,96.80
2018-10-03T03:25:54.460Z,96.65
2018-10-03T03:26:54.413Z,96.80
2018-10-03T03:27:54.326Z,96.80
2018-10-03T03:28:54.460Z,97.27
2018-10-03T03:29:54.278Z,96.89
2018-10-03T03:30:54.614Z,97.08
2018-10-03T03:31:54.294Z,96.46
2018-10-03T03:32:54.298Z,96.89
2018-10-03T03:33:54.194Z,96.70
2018-10-03T03:34:54.185Z,96.89
2018-10-03T03:35:54.164Z,97.75
2018-10-03T03:36:54.522Z,97.99
2018-10-03T03:37:54.423Z,97.51
2018-10-03T03:38:54.108Z,97.75
2018-10-03T03:39:54.085Z,97.17
2018-10-03T03:40:54.065Z,97.27
2018-10-03T03:41:54.052Z,97.60
2018-10-03T03:42:54.380Z,97.08
2018-10-03T03:43:54.055Z,97.17
2018-10-03T03:44:53.994Z,97.36
2018-10-03T03:46:53.945Z,97.70
2018-10-03T03:47:53.932Z,97.75
2018-10-03T03:48:54.257Z,97.94
2018-10-03T03:49:53.944Z,97.56
2018-10-03T03:50:53.862Z,98.32
2018-10-03T03:51:53.896Z,98.70
2018-10-03T03:52:53.873Z,98.60
2018-10-03T03:53:53.873Z,98.89
2018-10-03T03:54:54.088Z,98.13
2018-10-03T03:55:54.094Z,98.41
2018-10-03T03:56:53.808Z,99.08
2018-10-03T03:57:53.799Z,98.79
2018-10-03T03:58:53.911Z,98.99
2018-10-03T03:59:53.808Z,98.41
2018-10-03T04:00:53.785Z,98.99
2018-10-03T04:01:54.380Z,99.08
2018-10-03T04:03:53.932Z,98.22
2018-10-03T04:05:53.620Z,98.99
2018-10-03T04:06:53.694Z,99.55
2018-10-03T04:07:53.613Z,98.99
2018-10-03T04:08:53.858Z,98.99
2018-10-03T04:09:53.491Z,98.99
2018-10-03T04:10:53.470Z,98.89
2018-10-03T04:11:53.504Z,99.08
2018-10-03T04:12:53.482Z,98.89
2018-10-03T04:13:53.775Z,99.08
2018-10-03T04:14:53.460Z,98.89
2018-10-03T04:15:53.846Z,98.79
2018-10-03T04:16:53.525Z,98.32
2018-10-03T04:17:53.410Z,98.99
2018-10-03T04:19:53.372Z,99.08
2018-10-03T04:20:53.349Z,98.89
2018-10-03T04:21:53.327Z,98.99
2018-10-03T04:22:53.667Z,98.89
2018-10-03T04:23:53.390Z,99.27
2018-10-03T04:24:53.196Z,99.08
2018-10-03T04:25:53.228Z,99.18
2018-10-03T04:26:53.166Z,99.13
2018-10-03T04:27:53.134Z,99.22
2018-10-03T04:28:53.170Z,99.41
2018-10-03T04:29:53.457Z,99.04
2018-10-03T04:30:53.130Z,99.41
2018-10-03T04:31:53.070Z,99.18
2018-10-03T04:32:53.095Z,99.13
2018-10-03T04:33:53.369Z,99.22
2018-10-03T04:34:53.006Z,99.13
2018-10-03T04:35:52.986Z,99.13
2018-10-03T04:36:53.325Z,98.94
2018-10-03T04:37:53.028Z,99.51
2018-10-03T04:39:52.964Z,99.60
2018-10-03T04:40:52.987Z,99.51
2018-10-03T04:41:52.929Z,99.22
2018-10-03T04:42:52.913Z,99.04
2018-10-03T04:43:53.180Z,99.32
2018-10-03T04:44:52.808Z,99.41
2018-10-03T04:45:52.827Z,99.32
2018-10-03T04:46:52.774Z,99.51
2018-10-03T04:47:53.052Z,99.22
2018-10-03T04:48:52.800Z,99.41
2018-10-03T04:49:53.058Z,99.13
2018-10-03T04:50:52.695Z,98.94
2018-10-03T04:51:52.694Z,99.51
2018-10-03T04:52:52.653Z,99.22
2018-10-03T04:53:52.691Z,99.32
2018-10-03T04:54:52.618Z,98.85
2018-10-03T04:55:52.965Z,99.13
2018-10-03T04:56:52.653Z,99.22
2018-10-03T04:57:52.613Z,99.70
2018-10-03T04:58:52.589Z,99.41
2018-10-03T04:59:52.604Z,99.32
2018-10-03T05:00:52.555Z,98.46
2018-10-03T05:01:52.832Z,98.94
2018-10-03T05:02:52.461Z,98.56
2018-10-03T05:03:52.445Z,99.13
2018-10-03T05:04:52.425Z,99.32
2018-10-03T05:05:52.406Z,99.22
2018-10-03T05:06:52.457Z,99.32
2018-10-03T05:07:52.747Z,99.60
2018-10-03T05:08:52.397Z,99.32
2018-10-03T05:09:52.327Z,99.04
2018-10-03T05:10:52.325Z,99.22
2018-10-03T05:11:52.294Z,98.94
2018-10-03T05:12:52.269Z,99.13
2018-10-03T05:13:52.605Z,99.04
2018-10-03T05:14:52.537Z,99.22
2018-10-03T05:15:52.216Z,98.94
2018-10-03T05:16:52.199Z,98.56
2018-10-03T05:17:52.236Z,99.22
2018-10-03T05:18:52.163Z,98.65
2018-10-03T05:19:52.483Z,98.36
2018-10-03T05:20:52.162Z,98.36
2018-10-03T05:21:52.094Z,98.75
2018-10-03T05:22:52.122Z,99.41
2018-10-03T05:23:52.136Z,98.94
2018-10-03T05:24:52.088Z,99.13
2018-10-03T05:25:52.025Z,99.32
2018-10-03T05:26:52.542Z,99.13
2018-10-03T05:27:52.076Z,99.22
2018-10-03T05:28:52.056Z,99.60
2018-10-03T05:29:52.205Z,99.22
2018-10-03T05:30:51.987Z,99.13
2018-10-03T05:31:52.035Z,99.22
2018-10-03T05:32:51.973Z,99.51
2018-10-03T05:33:52.245Z,99.41
2018-10-03T05:34:51.901Z,98.75
2018-10-03T05:35:51.962Z,99.22
2018-10-03T05:36:51.819Z,99.04
2018-10-03T05:37:51.805Z,99.13
2018-10-03T05:38:51.817Z,99.22
2018-10-03T05:39:51.897Z,98.85
2018-10-03T05:40:52.322Z,98.56
2018-10-03T05:41:51.842Z,98.18
2018-10-03T05:42:51.763Z,97.99
2018-10-03T05:43:51.672Z,97.89
2018-10-03T05:44:51.707Z,97.13
2018-10-03T05:45:51.688Z,96.17
2018-10-03T05:46:51.616Z,96.80
2018-10-03T05:47:51.976Z,95.98
2018-10-03T05:48:51.868Z,96.89
2018-10-03T05:49:51.625Z,96.51
2018-10-03T05:50:51.592Z,95.84
2018-10-03T05:51:51.537Z,94.89
2018-10-03T05:53:51.816Z,94.32
2018-10-03T05:54:51.972Z,93.55
2018-10-03T05:55:51.490Z,94.32
2018-10-03T05:56:51.746Z,95.56
2018-10-03T05:57:51.451Z,94.98
2018-10-03T05:58:51.586Z,94.41
2018-10-03T05:59:51.472Z,94.70
2018-10-03T06:00:51.351Z,94.79
2018-10-03T06:01:51.668Z,95.75
2018-10-03T06:02:51.383Z,94.70
2018-10-03T06:03:51.360Z,94.51
2018-10-03T06:04:51.807Z,95.56
2018-10-03T06:05:51.295Z,95.08
2018-10-03T06:06:51.229Z,94.70
2018-10-03T06:07:51.257Z,93.55
2018-10-03T06:08:51.517Z,93.84
2018-10-03T06:09:51.176Z,94.32
2018-10-03T06:10:51.743Z,93.74
2018-10-03T06:11:51.186Z,93.55
2018-10-03T06:12:51.172Z,93.46
2018-10-03T06:13:51.286Z,93.55
2018-10-03T06:14:51.625Z,93.65
2018-10-03T06:15:51.060Z,94.60
2018-10-03T06:16:51.151Z,94.13
2018-10-03T06:17:51.010Z,94.13
2018-10-03T06:18:51.117Z,94.32
2018-10-03T06:19:51.049Z,93.46
2018-10-03T06:20:51.362Z,93.74
2018-10-03T06:22:50.967Z,93.27
2018-10-03T06:23:51.019Z,93.55
2018-10-03T06:25:50.878Z,93.93
2018-10-03T06:26:50.881Z,93.55
2018-10-03T06:27:51.215Z,94.03
2018-10-03T06:28:50.848Z,94.32
2018-10-03T06:29:50.923Z,93.55
2018-10-03T06:30:50.835Z,93.65
2018-10-03T06:31:51.384Z,92.79
2018-10-03T06:32:50.772Z,92.79
2018-10-03T06:33:51.006Z,92.60
2018-10-03T06:34:50.740Z,93.55
2018-10-03T06:35:50.664Z,93.55
2018-10-03T06:36:50.636Z,93.27
2018-10-03T06:37:50.696Z,93.46
2018-10-03T06:38:50.753Z,93.27
2018-10-03T06:39:51.009Z,93.93
2018-10-03T06:40:50.627Z,93.46
2018-10-03T06:41:50.562Z,92.98
2018-10-03T06:43:50.504Z,93.27
2018-10-03T06:44:50.490Z,93.08
2018-10-03T06:45:50.839Z,92.32
2018-10-03T06:46:50.527Z,91.27
2018-10-03T06:49:50.383Z,91.55
2018-10-03T06:50:50.758Z,90.60
2018-10-03T06:51:51.399Z,90.31
2018-10-03T06:52:50.511Z,90.41
2018-10-03T06:53:50.323Z,89.65
2018-10-03T06:54:50.345Z,89.46
2018-10-03T06:55:50.358Z,89.07
2018-10-03T06:56:50.434Z,89.13
2018-10-03T06:57:50.744Z,89.17
2018-10-03T06:58:50.314Z,88.89
2018-10-03T06:59:50.256Z,88.89
2018-10-03T07:00:50.219Z,88.79
2018-10-03T07:01:50.195Z,88.65
2018-10-03T07:02:50.359Z,88.70
2018-10-03T07:03:50.245Z,89.51
2018-10-03T07:04:51.468Z,89.32
2018-10-03T07:05:50.161Z,89.41
2018-10-03T07:06:50.115Z,88.89
2018-10-03T07:07:50.114Z,89.51
2018-10-03T07:08:50.085Z,89.36
2018-10-03T07:09:50.053Z,89.36
2018-10-03T07:10:50.027Z,89.84
2018-10-03T07:11:50.313Z,89.89
2018-10-03T07:12:49.940Z,90.70
2018-10-03T07:13:50.005Z,90.89
2018-10-03T07:14:49.898Z,90.70
2018-10-03T07:15:50.012Z,90.41
2018-10-03T07:16:49.936Z,90.22
2018-10-03T07:17:50.189Z,90.79
2018-10-03T07:18:50.347Z,90.70
2018-10-03T07:19:49.926Z,90.50
2018-10-03T07:20:49.796Z,90.41
2018-10-03T07:21:50.555Z,90.70
2018-10-03T07:22:49.740Z,92.22
2018-10-03T07:23:49.783Z,92.13
2018-10-03T07:24:49.804Z,93.08
2018-10-03T07:25:50.034Z,92.98
2018-10-03T07:26:49.732Z,92.50
2018-10-03T07:27:50.213Z,92.41
2018-10-03T07:28:49.929Z,92.69
2018-10-03T07:29:49.611Z,92.22
2018-10-03T07:30:49.587Z,92.03
2018-10-03T07:31:49.636Z,92.69
2018-10-03T07:32:50.209Z,92.41
2018-10-03T07:33:49.532Z,92.79
2018-10-03T07:34:49.799Z,91.84
2018-10-03T07:35:49.484Z,93.17
2018-10-03T07:36:49.463Z,92.79
2018-10-03T07:37:49.556Z,93.27
2018-10-03T07:38:49.443Z,93.08
2018-10-03T07:39:49.779Z,93.08
2018-10-03T07:40:49.433Z,92.98
2018-10-03T07:41:49.443Z,93.27
2018-10-03T07:42:49.357Z,92.50
2018-10-03T07:43:49.333Z,92.32
2018-10-03T07:44:49.365Z,92.32
2018-10-03T07:45:49.654Z,92.22
2018-10-03T07:46:49.329Z,91.84
2018-10-03T07:47:49.258Z,91.84
2018-10-03T07:48:49.232Z,93.27
2018-10-03T07:49:49.212Z,92.03
2018-10-03T07:50:49.199Z,93.27
2018-10-03T07:51:49.526Z,92.22
2018-10-03T07:52:49.154Z,92.98
2018-10-03T07:53:49.187Z,93.12
2018-10-03T07:54:49.171Z,93.12
2018-10-03T07:55:49.172Z,93.22
2018-10-03T07:56:49.172Z,93.88
2018-10-03T07:57:49.385Z,94.56
2018-10-03T07:58:49.169Z,95.79
2018-10-03T07:59:49.035Z,94.93
2018-10-03T08:00:49.005Z,93.98
2018-10-03T08:01:48.987Z,94.46
2018-10-03T08:02:49.074Z,95.22
2018-10-03T08:03:49.582Z,96.65
2018-10-03T08:04:49.072Z,96.65
2018-10-03T08:05:49.070Z,95.79
2018-10-03T08:06:48.955Z,94.84
2018-10-03T08:07:49.016Z,96.61
2018-10-03T08:08:48.994Z,96.13
2018-10-03T08:09:49.336Z,96.89
2018-10-03T08:10:48.955Z,96.32
2018-10-03T08:11:49.373Z,95.46
2018-10-03T08:12:48.934Z,97.17
2018-10-03T08:13:48.905Z,96.41
2018-10-03T08:14:48.891Z,96.98
2018-10-03T08:15:49.248Z,97.56
2018-10-03T08:16:48.904Z,96.70
2018-10-03T08:18:48.819Z,97.17
2018-10-03T08:19:48.719Z,97.37
2018-10-03T08:20:48.650Z,96.89
2018-10-03T08:21:48.861Z,96.84
2018-10-03T08:22:49.212Z,99.13
2018-10-03T08:23:49.119Z,98.85
2018-10-03T08:24:48.566Z,99.28
2018-10-03T08:25:48.549Z,99.99
2018-10-03T08:26:48.547Z,98.27
2018-10-03T08:27:48.515Z,97.32
2018-10-03T08:28:48.556Z,96.46
2018-10-03T08:29:48.835Z,96.08
2018-10-03T08:30:48.515Z,95.17
2018-10-03T08:31:48.471Z,95.75
2018-10-03T08:32:48.665Z,94.98
2018-10-03T08:33:48.466Z,93.74
2018-10-03T08:34:48.395Z,94.79
2018-10-03T08:35:48.383Z,93.17
2018-10-03T08:36:48.859Z,93.65
2018-10-03T08:37:48.488Z,93.36
2018-10-03T08:38:48.563Z,93.84
2018-10-03T08:39:48.310Z,93.93
2018-10-03T08:40:48.347Z,93.93
2018-10-03T08:41:48.272Z,93.93
2018-10-03T08:42:48.285Z,94.51
2018-10-03T08:43:48.560Z,95.08
2018-10-03T08:44:48.273Z,94.41
2018-10-03T08:45:48.207Z,94.22
2018-10-03T08:46:48.253Z,93.17
2018-10-03T08:47:48.286Z,94.12
2018-10-03T08:48:48.201Z,92.98
2018-10-03T08:49:48.130Z,92.98
2018-10-03T08:50:48.549Z,92.32
2018-10-03T08:51:48.252Z,90.88
2018-10-03T08:52:48.216Z,90.41
2018-10-03T08:53:48.212Z,90.69
2018-10-03T08:54:48.178Z,91.07
2018-10-03T08:55:48.035Z,90.12
2018-10-03T08:56:48.214Z,90.79
2018-10-03T08:57:48.494Z,89.74
2018-10-03T08:58:48.099Z,90.88
2018-10-03T08:59:48.086Z,89.69
2018-10-03T09:00:48.125Z,90.88
2018-10-03T09:01:48.149Z,90.88
2018-10-03T09:02:48.037Z,91.64
2018-10-03T09:03:48.019Z,91.93
2018-10-03T09:04:48.245Z,94.79
2018-10-03T09:05:47.838Z,96.70
2018-10-03T09:06:47.872Z,95.84
2018-10-03T09:07:47.803Z,94.79
2018-10-03T09:08:47.787Z,94.32
2018-10-03T09:09:47.769Z,94.93
2018-10-03T09:10:48.102Z,94.17
2018-10-03T09:11:47.973Z,96.17
2018-10-03T09:12:47.946Z,95.61
2018-10-03T09:13:47.714Z,95.70
2018-10-03T09:14:47.768Z,94.56
2018-10-03T09:15:47.707Z,94.93
2018-10-03T09:16:48.065Z,94.93
2018-10-03T09:17:47.618Z,94.65
2018-10-03T09:18:47.628Z,95.89
2018-10-03T09:19:47.791Z,96.08
2018-10-03T09:20:47.574Z,97.56
2018-10-03T09:21:47.686Z,97.94
2018-10-03T09:22:47.912Z,97.75
2018-10-03T09:23:47.649Z,97.08
2018-10-03T09:24:47.702Z,96.13
2018-10-03T09:25:47.692Z,98.03
2018-10-03T09:26:47.469Z,97.37
2018-10-03T09:27:47.577Z,98.57
2018-10-03T09:28:47.807Z,97.71
2018-10-03T09:31:47.393Z,96.94
2018-10-03T09:32:47.462Z,99.23
2018-10-03T09:33:47.406Z,98.57
2018-10-03T09:34:47.639Z,99.71
2018-10-03T09:36:47.541Z,99.43
2018-10-03T09:37:47.496Z,99.99
2018-10-03T09:38:47.285Z,99.99
2018-10-03T09:39:47.402Z,99.76
2018-10-03T09:40:47.597Z,99.99
2018-10-03T09:41:47.529Z,99.85
2018-10-03T09:42:47.332Z,99.99
2018-10-03T09:43:47.350Z,99.99
2018-10-03T09:44:47.178Z,99.99
2018-10-03T09:45:48.216Z,99.99
2018-10-03T09:46:47.500Z,99.99
2018-10-03T09:47:47.151Z,99.99
2018-10-03T09:48:47.127Z,99.99
2018-10-03T09:49:47.162Z,99.57
2018-10-03T09:50:47.093Z,99.99
2018-10-03T09:51:47.085Z,99.99
2018-10-03T09:52:47.112Z,99.81
2018-10-03T09:53:47.364Z,99.99
2018-10-03T09:54:47.047Z,99.66
2018-10-03T09:55:47.081Z,99.38
2018-10-03T09:56:47.193Z,99.99
2018-10-03T09:57:46.991Z,99.90
2018-10-03T09:58:46.979Z,98.75
2018-10-03T09:59:46.961Z,99.52
2018-10-03T10:00:47.367Z,99.80
2018-10-03T10:01:46.942Z,99.90
2018-10-03T10:02:46.915Z,99.14
2018-10-03T10:03:46.930Z,99.04
2018-10-03T10:04:46.937Z,98.37
2018-10-03T10:05:46.874Z,97.99
2018-10-03T10:06:46.973Z,98.57
2018-10-03T10:07:47.264Z,97.94
2018-10-03T10:08:47.769Z,98.90
2018-10-03T10:09:47.994Z,98.08
2018-10-03T10:10:46.895Z,99.71
2018-10-03T10:11:46.953Z,99.76
2018-10-03T10:12:46.795Z,97.99
2018-10-03T10:13:46.881Z,97.37
2018-10-03T10:14:47.354Z,98.32
2018-10-03T10:15:46.951Z,97.75
2018-10-03T10:17:46.892Z,97.66
2018-10-03T10:18:46.926Z,98.90
2018-10-03T10:19:46.862Z,98.03
2018-10-03T10:20:47.028Z,97.27
2018-10-03T10:21:46.926Z,98.85
2018-10-03T10:22:46.617Z,99.99
2018-10-03T10:23:46.595Z,99.95
2018-10-03T10:24:46.572Z,99.99
2018-10-03T10:25:46.552Z,99.99
2018-10-03T10:26:46.986Z,99.99
2018-10-03T10:27:46.824Z,99.71
2018-10-03T10:28:47.700Z,99.99
2018-10-03T10:29:46.503Z,99.99
2018-10-03T10:30:46.619Z,99.99
2018-10-03T10:31:46.709Z,99.91
2018-10-03T10:32:46.547Z,99.15
2018-10-03T10:33:46.442Z,99.99
2018-10-03T10:34:46.421Z,99.15
2018-10-03T10:35:46.765Z,99.81
2018-10-03T10:36:46.525Z,99.99
2018-10-03T10:37:46.414Z,99.76
2018-10-03T10:38:46.505Z,99.24
2018-10-03T10:39:46.411Z,99.43
2018-10-03T10:40:47.182Z,99.71
2018-10-03T10:41:46.720Z,99.99
2018-10-03T10:42:46.419Z,99.66
2018-10-03T10:43:46.306Z,99.66
2018-10-03T10:44:46.343Z,99.85
2018-10-03T10:45:46.274Z,99.99
2018-10-03T10:46:46.323Z,99.99
2018-10-03T10:47:46.548Z,99.71
2018-10-03T10:48:46.239Z,99.90
2018-10-03T10:49:46.237Z,99.04
2018-10-03T10:50:46.209Z,99.99
2018-10-03T10:51:46.721Z,99.99
2018-10-03T10:52:46.233Z,99.43
2018-10-03T10:53:46.518Z,99.81
2018-10-03T10:54:46.155Z,99.99
2018-10-03T10:55:46.154Z,99.71
2018-10-03T10:56:46.130Z,99.81
2018-10-03T10:57:46.121Z,99.85
2018-10-03T10:58:46.274Z,99.76
2018-10-03T10:59:46.473Z,99.99
2018-10-03T11:01:46.071Z,99.99
2018-10-03T11:03:46.024Z,99.99
2018-10-03T11:04:46.007Z,97.37
2018-10-03T11:05:46.349Z,96.22
2018-10-03T11:06:46.672Z,95.65
2018-10-03T11:07:46.101Z,95.75
2018-10-03T11:08:45.952Z,96.61
2018-10-03T11:09:45.984Z,96.89
2018-10-03T11:10:45.928Z,97.85
2018-10-03T11:11:46.268Z,97.99
2018-10-03T11:12:45.910Z,97.47
2018-10-03T11:13:45.886Z,96.37
2018-10-03T11:14:45.864Z,96.08
2018-10-03T11:15:45.851Z,96.32
2018-10-03T11:16:45.891Z,94.79
2018-10-03T11:17:46.301Z,95.65
2018-10-03T11:18:45.813Z,95.22
2018-10-03T11:19:45.794Z,96.18
2018-10-03T11:20:45.844Z,97.52
2018-10-03T11:21:45.842Z,97.23
2018-10-03T11:22:45.853Z,97.18
2018-10-03T11:23:45.980Z,95.65
2018-10-03T11:24:46.211Z,95.41
2018-10-03T11:25:45.902Z,95.03
2018-10-03T11:26:45.893Z,92.92
2018-10-03T11:27:45.734Z,91.96
2018-10-03T11:28:48.643Z,92.35
2018-10-03T11:29:45.696Z,92.68
2018-10-03T11:30:45.699Z,89.80
2018-10-03T11:31:46.292Z,87.12
2018-10-03T11:32:45.895Z,88.46
2018-10-03T11:33:45.639Z,87.50
2018-10-03T11:34:45.603Z,86.58
2018-10-03T11:35:45.591Z,83.67
2018-10-03T11:36:45.769Z,82.14
2018-10-03T11:37:45.883Z,81.56
2018-10-03T11:38:46.093Z,82.14
2018-10-03T11:39:45.676Z,82.71
2018-10-03T11:40:45.547Z,82.14
2018-10-03T11:41:46.064Z,82.65
2018-10-03T11:42:45.903Z,83.95
2018-10-03T11:43:45.835Z,83.53
2018-10-03T11:54:45.422Z,98.13
2018-10-03T11:55:45.432Z,97.89
2018-10-03T11:56:45.362Z,98.37
2018-10-03T11:58:45.402Z,98.94
2018-10-03T12:00:45.646Z,98.57
2018-10-03T12:01:45.371Z,99.14
2018-10-03T12:02:45.379Z,99.62
2018-10-03T12:03:45.798Z,98.57
2018-10-03T12:04:45.318Z,99.76
2018-10-03T12:07:46.870Z,97.99
2018-10-03T12:09:45.187Z,98.94
2018-10-03T12:10:45.194Z,99.57
2018-10-03T12:11:45.407Z,98.23
2018-10-03T12:15:45.175Z,99.04
2018-10-03T12:23:45.038Z,94.60
2018-10-03T12:26:45.491Z,94.26
2018-10-03T12:38:44.811Z,88.70
2018-10-03T12:39:45.170Z,90.04
2018-10-03T12:40:44.780Z,88.70
2018-10-03T12:42:45.283Z,90.47
2018-10-03T12:43:44.914Z,90.28
2018-10-03T12:44:44.784Z,89.32
2018-10-03T12:45:45.077Z,88.65
2018-10-03T12:46:44.711Z,87.74
2018-10-03T12:47:44.696Z,86.15
2018-10-03T12:48:44.760Z,83.33
2018-10-03T12:49:44.678Z,84.19
2018-10-03T12:50:44.755Z,84.77
2018-10-03T12:51:45.065Z,84.61
2018-10-03T12:52:44.655Z,87.44
2018-10-03T12:53:44.921Z,84.85
2018-10-03T12:54:44.785Z,82.31
2018-10-03T12:55:44.612Z,81.51
2018-10-03T12:56:44.605Z,82.52
2018-10-03T12:57:44.909Z,86.41
2018-10-03T12:58:44.650Z,89.28
2018-10-03T12:59:44.955Z,87.80
2018-10-03T13:00:44.571Z,87.80
2018-10-03T13:01:44.560Z,89.33
2018-10-03T13:02:44.805Z,89.52
2018-10-03T13:03:44.826Z,89.95
2018-10-03T13:05:44.552Z,93.30
2018-10-03T13:06:44.496Z,95.46
2018-10-03T13:07:44.481Z,95.65
2018-10-03T13:08:44.631Z,96.56
2018-10-03T13:09:44.457Z,97.99
2018-10-03T13:10:45.436Z,97.66
2018-10-03T13:11:45.251Z,98.04
2018-10-03T13:12:44.625Z,96.03
2018-10-03T13:13:45.406Z,98.66
2018-10-03T13:14:44.395Z,97.32
2018-10-03T13:16:45.732Z,99.52
2018-10-03T13:17:44.469Z,97.75
2018-10-03T13:18:44.558Z,97.61
2018-10-03T13:19:44.458Z,96.18
2018-10-03T13:20:44.458Z,96.51
2018-10-03T13:21:44.499Z,96.32
2018-10-03T13:22:44.693Z,96.51
2018-10-03T13:23:44.347Z,95.84
2018-10-03T13:24:44.263Z,96.42
2018-10-03T13:25:44.830Z,95.75
2018-10-03T13:26:44.234Z,95.65
2018-10-03T13:27:44.220Z,96.13
2018-10-03T13:28:44.715Z,96.37
2018-10-03T13:29:44.368Z,96.42
2018-10-03T13:30:44.543Z,95.51
2018-10-03T13:31:44.316Z,94.45
2018-10-03T13:32:44.152Z,95.07
2018-10-03T13:33:44.153Z,96.08
2018-10-03T13:34:44.524Z,96.89
2018-10-03T13:35:44.216Z,96.51
2018-10-03T13:36:44.268Z,96.13
2018-10-03T13:37:44.470Z,96.84
2018-10-03T13:38:44.375Z,97.04
2018-10-03T13:39:44.238Z,96.94
2018-10-03T13:41:44.113Z,98.18
2018-10-03T13:43:45.332Z,96.27
2018-10-03T13:44:44.085Z,97.61
2018-10-03T13:45:44.470Z,98.57
2018-10-03T13:47:44.091Z,96.08
2018-10-03T13:48:45.203Z,95.75
2018-10-03T13:49:44.820Z,94.69
2018-10-03T13:50:44.048Z,94.89
2018-10-03T13:51:44.439Z,94.89
2018-10-03T13:54:44.023Z,91.49
2018-10-03T13:55:44.372Z,91.58
2018-10-03T13:57:44.228Z,90.62
2018-10-03T13:58:44.171Z,89.95
2018-10-03T14:01:44.605Z,91.53
2018-10-03T14:02:48.729Z,91.14
2018-10-03T14:04:46.062Z,89.13
2018-10-03T14:11:45.235Z,84.95
2018-10-03T14:14:43.894Z,84.58
2018-10-03T14:15:43.584Z,84.34
2018-10-03T14:27:44.017Z,84.77
2018-10-03T14:33:43.423Z,82.41
2018-10-03T14:34:43.639Z,80.26
2018-10-03T14:37:43.349Z,78.57
2018-10-03T14:40:43.842Z,80.11
2018-10-03T14:41:43.373Z,78.19
2018-10-03T14:43:43.464Z,79.44
2018-10-03T14:44:44.711Z,78.19
2018-10-03T14:46:46.145Z,78.57
2018-10-03T14:48:43.206Z,78.47
2018-10-03T14:49:44.091Z,80.60
2018-10-03T14:50:43.696Z,84.39
2018-10-03T14:56:43.300Z,92.02
2018-10-03T14:57:43.212Z,93.07